Home > Products > Valid Products > MTR

000
SAUS43 KUNR 010457
MTRD07
METAR KD07 010456Z AUTO 28014KT 09/06 A2998 RMK AO1 SLP157 T00940061





000
SAUS43 KUNR 010308 COR
MTRD07
METAR KD07 010256Z AUTO 30016G24KT 11/07 A2996 RMK AO1 PK WND
30026/0227 SLP152 T01110067 51017





000
SAUS43 KUNR 010258
MTRD07
METAR KD07 010256Z AUTO 30016G24KT 11/07 A2996 RMK AO1 PK WND
30026/0227 SLP152 T01110067 51017





000
SAUS43 KUNR 010257
MTR2WX
METAR K2WX 010256Z AUTO 30012KT 11/08 A2995 RMK AO1 SLP144 P0003
60003 T01060083 53012





000
SAUS43 KUNR 312358
MTR2WX
METAR K2WX 312356Z AUTO 31022KT 14/09 A2991 RMK AO1 PK WND
30035/2311 SLP129 60005 T01390089 10139 20106 51010





000
SAUS43 KUNR 312357
MTRD07
METAR KD07 312356Z AUTO 30031G38KT 16/06 A2991 RMK AO1 PK WND
29038/2356 SLP133 T01560056 10172 20111 51012





000
SAUS43 KUNR 312007 COR
MTRD07
METAR KD07 311956Z AUTO 28031G44KT 15/07 A2984 RMK AO1 PK WND
27045/1909 SLP108 T01500067





000
SAUS43 KUNR 312000 COR
MTRD07
METAR KD07 311956Z AUTO 28031G44KT 15/07 A2984 RMK AO1 PK WND
27045/1909 SLP108 T01500067





000
SAUS43 KUNR 311959 COR
MTR2WX
METAR K2WX 311956Z AUTO 29030G42KT 13/09 A2985 RMK AO1 PK WND
30045/1926 SLP111 T01280089





000
SAUS43 KUNR 311858
MTRD07
METAR KD07 311856Z AUTO 26032G42KT 13/08 A2985 RMK AO1 PK WND
27042/1853 SLP114 T01280078





000
SAUS43 KUNR 311857
MTR2WX
METAR K2WX 311856Z AUTO 29033G40KT 12/09 A2983 RMK AO1 PK WND
29042/1823 SLP103 P0001 T01220089





000
SAUS43 KUNR 311758
MTR2WX
METAR K2WX 311756Z AUTO 29031G42KT 11/09 A2981 RMK AO1 PK WND
29046/1701 SLP099 60002 T01110089 10111 20072 55001





000
SAUS43 KUNR 311757
MTRD07
METAR KD07 311756Z AUTO 26027G35KT 11/07 A2986 RMK AO1 PK WND
27042/1714 SLP118 T01110067 10133 20078 56012





000
SAUS43 KUNR 311658
MTR2WX
METAR K2WX 311656Z AUTO 28038G48KT 11/08 A2979 RMK AO1 PK WND
28048/1654 SLP094 P0001 T01060078





000
SAUS43 KUNR 311657
MTRD07
METAR KD07 311656Z AUTO 27026G38KT 12/04 A2987 RMK AO1 PK WND
27043/1617 SLP118 T01220044





000
SAUS43 KUNR 311458
MTR2WX
METAR K2WX 311456Z AUTO 27028G37KT 10/06 A2981 RMK AO1 PK WND
26040/1439 SLP096 T01000056 58007





000
SAUS43 KUNR 311458
MTRD07
METAR KD07 311456Z AUTO 28031G40KT 11/04 A2990 RMK AO1 PK WND
27040/1455 SLP131 T01060039 58007





000
SAUS43 KUNR 311259 COR
MTR2WX
METAR K2WX 311256Z AUTO 27021G32KT 08/05 A2985 RMK AO1 PK WND
27036/1157 SLP110 T00780050 $





000
SAUS43 KUNR 311258 COR
MTR2WX
METAR K2WX 311256Z AUTO 27021G32KT 08/05 A2985 RMK AO1 PK WND
27036/1157 SLP110 T00780050 $





000
SAUS43 KUNR 311257
MTRD07
METAR KD07 311256Z AUTO 26017G25KT 11/03 A2992 RMK AO1 SLP133
T01060033





000
SAUS43 KUNR 311202 COR
MTR2WX
METAR K2WX 311156Z AUTO 27029G35KT 08/06 A2984 RMK AO1 PK WND
27035/1151 SLP103 70001 T00830056 10100 20072 58014 $





000
SAUS43 KUNR 311200 COR
MTR2WX
METAR K2WX 311156Z AUTO 27029G35KT 08/06 A2984 RMK AO1 PK WND
27035/1151 SLP103 70001 T00830056 10100 20072 58014 $





000
SAUS43 KUNR 311158 COR
MTR2WX
METAR K2WX 311156Z AUTO 27029G35KT 08/06 A2984 RMK AO1 PK WND
27035/1151 SLP103 70001 T00830056 10100 20072 58014 $





000
SAUS43 KUNR 311158
MTRD07
METAR KD07 311156Z AUTO 27010KT 08/02 A2992 RMK AO1 SLP137 70004
T00780022 10094 20072 52005





000
SAUS43 KUNR 310701 COR
MTR2WX
METAR K2WX 310656Z AUTO 25006KT 08/02 A2991 RMK AO1 SLP129 T00780022
402060072 $





000
SAUS43 KUNR 310700 COR
MTR2WX
METAR K2WX 310656Z AUTO 25006KT 08/02 A2991 RMK AO1 SLP129 T00780022
402060072 $





000
SAUS43 KUNR 310658 COR
MTR2WX
METAR K2WX 310656Z AUTO 25006KT 08/02 A2991 RMK AO1 SLP129 T00780022
402060072 $





000
SAUS43 KUNR 310657
MTRD07
METAR KD07 310656Z AUTO 27013KT 09/06 A2994 RMK AO1 SLP133 T00940061
402670094





000
SAUS43 KUNR 310601 COR
MTR2WX
METAR K2WX 310556Z AUTO 29014KT 08/04 A2993 RMK AO1 SLP135 T00780044
10156 20072 58002 $





000
SAUS43 KUNR 310559 COR
MTR2WX
METAR K2WX 310556Z AUTO 29014KT 08/04 A2993 RMK AO1 SLP135 T00780044
10156 20072 58002 $





000
SAUS43 KUNR 310500 COR
MTR2WX
METAR K2WX 310456Z AUTO 28012KT 08/06 A2993 RMK AO1 SLP131 T00780056
$





000
SAUS43 KUNR 302057
MTRD07
METAR KD07 302056Z AUTO 24013KT 24/11 A2976 RMK AO1 SLP066 T02390111
58018





000
SAUS43 KUNR 301958
MTRD07
METAR KD07 301956Z AUTO 18010KT 26/12 A2977 RMK AO1 SLP068 T02560122





000
SAUS43 KUNR 301857
MTR2WX
METAR K2WX 301856Z AUTO 32019KT 15/11 A2984 RMK AO1 SLP097 T01500111
$





000
SAUS43 KUNR 301758
MTR2WX
METAR K2WX 301756Z AUTO 36013KT 16/12 A2984 RMK AO1 SLP097 60001
T01560117 10189 20122 $





000
SAUS43 KUNR 301757
MTRD07
METAR KD07 301756Z AUTO 15011KT 23/12 A2981 RMK AO1 SLP086 T02330122
10233 20139 58009





000
SAUS43 KUNR 301701 COR
MTR2WX
METAR K2WX 301656Z AUTO 36014KT 19/13 A2983 RMK AO1 SLP089 T01890128
$





000
SAUS43 KUNR 301658 COR
MTR2WX
METAR K2WX 301656Z AUTO 36014KT 19/13 A2983 RMK AO1 SLP089 T01890128
$





000
SAUS43 KUNR 301558 COR
MTR2WX
METAR K2WX 301556Z AUTO 03009KT 19/13 A2982 RMK AO1 SLP086 P0001
T01890128 $





000
SAUS43 KUNR 301357
MTR2WX
METAR K2WX 301356Z AUTO 33008KT 14/11 A2983 RMK AO1 SLP087 T01440111
$





000
SAUS43 KUNR 301357
MTRD07
METAR KD07 301356Z AUTO 15017KT 17/12 A2987 RMK AO1 SLP108 T01720122





000
SAUS43 KUNR 301157
MTR2WX
METAR K2WX 301156Z AUTO 11007KT 13/11 A2982 RMK AO1 SLP084 70001
T01280106 10144 20100 56010 $





000
SAUS43 KUNR 301157
MTRD07
METAR KD07 301156Z AUTO 13015KT 14/11 A2990 RMK AO1 SLP117 T01390111
10150 20128 56006





000
SAUS43 KUNR 301057
MTR2WX
METAR K2WX 301056Z AUTO 12009KT 12/10 A2983 RMK AO1 SLP087 T01220100
$





000
SAUS43 KUNR 301057
MTRD07
METAR KD07 301056Z AUTO 13015KT 13/10 A2991 RMK AO1 SLP125 T01330100





000
SAUS43 KUNR 300957
MTRD07
METAR KD07 300956Z AUTO 14011KT 13/10 A2991 RMK AO1 SLP117 T01330100





000
SAUS43 KUNR 300957
MTR2WX
METAR K2WX 300956Z AUTO 13007KT 12/09 A2985 RMK AO1 SLP094 T01170089
$





000
SAUS43 KUNR 300857
MTR2WX
METAR K2WX 300856Z AUTO 12003KT 12/09 A2986 RMK AO1 SLP095 T01220089
56017 $





000
SAUS43 KUNR 300601 COR
MTR2WX
METAR K2WX 300556Z AUTO 15004KT 14/08 A2991 RMK AO1 SLP115 T01390083
10250 20139 50000 $





000
SAUS43 KUNR 300558 COR
MTR2WX
METAR K2WX 300556Z AUTO 15004KT 14/08 A2991 RMK AO1 SLP115 T01390083
10250 20139 50000 $





000
SAUS43 KUNR 300058
MTRD07
METAR KD07 300056Z AUTO 07015KT 19/09 A2999 RMK AO1 SLP150 T01940089





000
SAUS43 KUNR 300057
MTR2WX
METAR K2WX 300056Z AUTO 13012KT 23/09 A2990 RMK AO1 SLP115 T02330089
$





000
SAUS43 KUNR 292257
MTRD07
METAR KD07 292256Z AUTO 04014KT 17/08 A3001 RMK AO1 WSHFT 2223
SLP165 T01720078





000
SAUS43 KUNR 291957
MTRD07
METAR KD07 291956Z AUTO 17010KT 24/10 A3002 RMK AO1 SLP161 T02390100





000
SAUS43 KUNR 291800 COR
MTR2WX
METAR K2WX 291756Z AUTO 20007KT 23/05 A2998 RMK AO1 SLP139 T02280050
10244 20094 58009 $





000
SAUS43 KUNR 291758 COR
MTR2WX
METAR K2WX 291756Z AUTO 20007KT 23/05 A2998 RMK AO1 SLP139 T02280050
10244 20094 58009 $





000
SAUS43 KUNR 291757
MTRD07
METAR KD07 291756Z AUTO 16008KT 22/09 A3005 RMK AO1 SLP170 T02220094
10228 20100 58006





000
SAUS43 KUNR 291557
MTR2WX
METAR K2WX 291556Z AUTO 00000KT 21/08 A3000 RMK AO1 SLP146 T02110078
$





000
SAUS43 KUNR 291557
MTRD07
METAR KD07 291556Z AUTO 17008KT 19/12 A3007 RMK AO1 SLP180 T01940117





000
SAUS43 KUNR 291257
MTR2WX
METAR K2WX 291256Z AUTO 25003KT 10/06 A3001 RMK AO1 SLP154 T01000061





000
SAUS43 KUNR 291257
MTRD07
METAR KD07 291256Z AUTO 00000KT 13/10 A3006 RMK AO1 SLP177 T01330100





000
SAUS43 KUNR 291157
MTRD07
METAR KD07 291156Z AUTO 25003KT 10/08 A3005 RMK AO1 SLP177 70008
T01000078 10144 20089 53008





000
SAUS43 KUNR 291157
MTR2WX
METAR K2WX 291156Z AUTO 28004KT 10/05 A3000 RMK AO1 SLP149 70002
T01000050 10117 20067 53006





000
SAUS43 KUNR 291057
MTR2WX
METAR K2WX 291056Z AUTO 27006KT 08/06 A2999 RMK AO1 SLP150 T00830056





000
SAUS43 KUNR 291057
MTRD07
METAR KD07 291056Z AUTO 29006KT 11/08 A3004 RMK AO1 SLP172 T01060078





000
SAUS43 KUNR 290700 COR
MTR2WX
METAR K2WX 290656Z AUTO 29005KT 10/06 A2998 RMK AO1 SLP145 T01000056
402280072





000
SAUS43 KUNR 290658 COR
MTR2WX
METAR K2WX 290656Z AUTO 29005KT 10/06 A2998 RMK AO1 SLP145 T01000056
402280072





000
SAUS43 KUNR 290657
MTRD07
METAR KD07 290656Z AUTO 32006KT 13/09 A3001 RMK AO1 SLP154 T01330094
402390078





000
SAUS43 KUNR 290657
MTR2WX
METAR K2WX 290656Z AUTO 29005KT 10/06 A2998 RMK AO1 SLP145 T01000056
402280072





000
SAUS43 KUNR 290602 COR
MTR2WX
METAR K2WX 290556Z AUTO 21003KT 12/06 A2997 RMK AO1 SLP140 T01220056
10217 20106 51014





000
SAUS43 KUNR 290601 COR
MTR2WX
METAR K2WX 290556Z AUTO 21003KT 12/06 A2997 RMK AO1 SLP140 T01220056
10217 20106 51014





000
SAUS43 KUNR 290600 COR
MTR2WX
METAR K2WX 290556Z AUTO 21003KT 12/06 A2997 RMK AO1 SLP140 T01220056
10217 20106 51014





000
SAUS43 KUNR 290558 COR
MTR2WX
METAR K2WX 290556Z AUTO 21003KT 12/06 A2997 RMK AO1 SLP140 T01220056
10217 20106 51014





000
SAUS43 KUNR 290557
MTRD07
METAR KD07 290556Z AUTO 30005KT 14/09 A3000 RMK AO1 SLP153 60006
T01390094 10189 20122 51014





    US Dept of Commerce
    National Oceanic and Atmospheric Administration
    National Weather Service
    1325 East West Highway
    Silver Spring, MD 20910
    Page Author: NWS Internet Services Team
Disclaimer
Information Quality
Credits
Glossary
Privacy Policy
Freedom of Information Act (FOIA)
About Us
Career Opportunities